Time;durP1;ratioP1;P1;durP2;ratioP2;P2;SDS_P1;SDS_P2;PMS_P1;PMS_P2;Temp;Humidity;BMP_temperature;BMP_pressure;BME280_temperature;BME280_humidity;BME280_pressure;Samples;Min_cycle;Max_cycle;Signal;HPM_P1;HPM_P2
2023/10/23 00:02:25;;;;;;;6.97;3.55;;;;;;;;;;5008661;28;20029;-67
2023/10/23 00:04:51;;;;;;;7.95;2.97;;;;;;;;;;5009079;28;20030;-67
2023/10/23 00:07:17;;;;;;;6.47;2.80;;;;;;;;;;5009038;28;20140;-67
2023/10/23 00:09:44;;;;;;;10.32;3.28;;;;;;;;;;5008626;28;20091;-68
2023/10/23 00:12:10;;;;;;;6.13;3.03;;;;;;;;;;5008394;28;20739;-68
2023/10/23 00:14:36;;;;;;;6.45;2.72;;;;;;;;;;5009263;28;20041;-67
2023/10/23 00:17:02;;;;;;;6.30;3.10;;;;;;;;;;5007524;28;20396;-67
2023/10/23 00:19:28;;;;;;;7.18;2.95;;;;;;;;;;5008304;28;20083;-67
2023/10/23 00:21:54;;;;;;;6.72;3.30;;;;;;;;;;5009480;28;20022;-67
2023/10/23 00:24:21;;;;;;;6.50;2.90;;;;;;;;;;5008629;28;20785;-68
2023/10/23 00:26:47;;;;;;;7.50;3.20;;;;;;;;;;5008840;28;20104;-67
2023/10/23 00:29:13;;;;;;;8.90;3.50;;;;;;;;;;5007655;28;20045;-68
2023/10/23 00:31:40;;;;;;;6.05;3.20;;;;;;;;;;5009056;28;21839;-67
2023/10/23 00:34:06;;;;;;;6.10;2.95;;;;;;;;;;5008729;28;20644;-67
2023/10/23 00:36:32;;;;;;;5.18;3.20;;;;;;;;;;5007370;28;20388;-67
2023/10/23 00:38:58;;;;;;;6.60;3.53;;;;;;;;;;5009291;28;20025;-67
2023/10/23 00:41:24;;;;;;;5.72;3.38;;;;;;;;;;5008660;28;20075;-67
2023/10/23 00:43:50;;;;;;;5.63;2.83;;;;;;;;;;5009404;28;20084;-67
2023/10/23 00:46:19;;;;;;;7.63;3.58;;;;;;;;;;5008420;28;20053;-68
2023/10/23 00:48:47;;;;;;;5.85;3.30;;;;;;;;;;5009139;28;20033;-68
2023/10/23 00:51:13;;;;;;;8.10;3.63;;;;;;;;;;5007403;28;20030;-67
2023/10/23 00:53:39;;;;;;;6.22;3.72;;;;;;;;;;5008324;28;20033;-68
2023/10/23 00:56:07;;;;;;;7.72;3.95;;;;;;;;;;5008907;28;20036;-68
2023/10/23 00:58:35;;;;;;;9.73;3.50;;;;;;;;;;5007754;28;20080;-68
2023/10/23 01:01:02;;;;;;;7.93;3.50;;;;;;;;;;5007542;28;20044;-68
2023/10/23 01:03:28;;;;;;;7.32;3.60;;;;;;;;;;5007677;28;20132;-68
2023/10/23 01:05:54;;;;;;;7.10;3.75;;;;;;;;;;5007523;28;20033;-68
2023/10/23 01:08:20;;;;;;;6.38;3.00;;;;;;;;;;5007150;28;20749;-68
2023/10/23 01:10:46;;;;;;;9.20;3.67;;;;;;;;;;5008469;28;20029;-67
2023/10/23 01:13:13;;;;;;;5.82;3.50;;;;;;;;;;5009180;28;20033;-68
2023/10/23 01:15:39;;;;;;;6.63;3.65;;;;;;;;;;5008721;28;20034;-68
2023/10/23 01:18:05;;;;;;;8.48;3.53;;;;;;;;;;5006778;28;20055;-67
2023/10/23 01:20:31;;;;;;;5.80;3.53;;;;;;;;;;5008989;28;20032;-68
2023/10/23 01:22:58;;;;;;;6.45;3.55;;;;;;;;;;5008874;28;20044;-68
2023/10/23 01:25:24;;;;;;;7.32;3.97;;;;;;;;;;5008540;28;20029;-68
2023/10/23 01:27:50;;;;;;;7.38;3.85;;;;;;;;;;5008609;28;20119;-68
2023/10/23 01:30:17;;;;;;;7.07;3.78;;;;;;;;;;5008116;28;20037;-68
2023/10/23 01:32:43;;;;;;;7.68;3.92;;;;;;;;;;5008367;28;20054;-68
2023/10/23 01:35:10;;;;;;;7.22;4.38;;;;;;;;;;5008055;28;20120;-68
2023/10/23 01:37:37;;;;;;;8.30;4.63;;;;;;;;;;5008002;28;20408;-68
2023/10/23 01:40:04;;;;;;;7.53;4.15;;;;;;;;;;5008657;28;20049;-68
2023/10/23 01:42:30;;;;;;;10.90;5.53;;;;;;;;;;5009058;28;20029;-68
2023/10/23 01:44:57;;;;;;;8.90;4.40;;;;;;;;;;5011383;28;20214;-68
2023/10/23 01:47:26;;;;;;;8.50;4.03;;;;;;;;;;5011443;28;20033;-68
2023/10/23 01:49:52;;;;;;;6.97;4.15;;;;;;;;;;5011651;28;20878;-68
2023/10/23 01:52:19;;;;;;;7.82;4.03;;;;;;;;;;5011984;28;20040;-68
2023/10/23 01:54:45;;;;;;;8.55;4.38;;;;;;;;;;5011564;28;20050;-68
2023/10/23 01:57:11;;;;;;;8.90;4.10;;;;;;;;;;5012596;28;20473;-68
2023/10/23 01:59:38;;;;;;;9.10;4.68;;;;;;;;;;5011192;28;21263;-68
2023/10/23 02:02:04;;;;;;;7.22;4.15;;;;;;;;;;5010545;28;20026;-68
2023/10/23 02:04:30;;;;;;;6.13;4.20;;;;;;;;;;5012105;28;20140;-68
2023/10/23 02:06:56;;;;;;;10.18;4.47;;;;;;;;;;5012018;28;20118;-68
2023/10/23 02:09:23;;;;;;;7.22;3.63;;;;;;;;;;5012112;28;20104;-67
2023/10/23 02:11:49;;;;;;;7.15;4.32;;;;;;;;;;5012558;28;20149;-67
2023/10/23 02:14:15;;;;;;;8.30;4.45;;;;;;;;;;5012249;28;20042;-68
2023/10/23 02:16:41;;;;;;;10.90;5.40;;;;;;;;;;5011527;28;20030;-67
2023/10/23 02:19:08;;;;;;;10.05;4.53;;;;;;;;;;5011855;28;20029;-68
2023/10/23 02:21:35;;;;;;;10.32;4.63;;;;;;;;;;5011763;28;20538;-68
2023/10/23 02:24:01;;;;;;;9.80;4.63;;;;;;;;;;5011761;28;20128;-68
2023/10/23 02:26:27;;;;;;;6.60;4.22;;;;;;;;;;5010589;28;20025;-68
2023/10/23 02:28:54;;;;;;;8.80;4.45;;;;;;;;;;5011463;28;20037;-68
2023/10/23 02:31:20;;;;;;;7.88;4.47;;;;;;;;;;5011834;28;20037;-68
2023/10/23 02:33:46;;;;;;;9.27;4.68;;;;;;;;;;5011715;28;20045;-67
2023/10/23 02:36:12;;;;;;;7.03;4.55;;;;;;;;;;5011228;28;20391;-68
2023/10/23 02:38:38;;;;;;;8.02;4.22;;;;;;;;;;5011395;28;20100;-68
2023/10/23 02:41:04;;;;;;;10.32;4.82;;;;;;;;;;5010706;28;20040;-68
2023/10/23 02:43:30;;;;;;;7.80;4.30;;;;;;;;;;5011447;28;20034;-68
2023/10/23 02:46:01;;;;;;;7.20;4.32;;;;;;;;;;5027740;28;20025;-68
2023/10/23 02:48:27;;;;;;;7.78;4.65;;;;;;;;;;5012213;28;20029;-68
2023/10/23 02:50:53;;;;;;;7.25;4.75;;;;;;;;;;5011411;28;20037;-68
2023/10/23 02:53:19;;;;;;;9.35;4.97;;;;;;;;;;5009390;28;20029;-68
2023/10/23 02:55:45;;;;;;;6.72;4.75;;;;;;;;;;5011379;28;21994;-68
2023/10/23 02:58:11;;;;;;;8.20;4.80;;;;;;;;;;5010806;28;20040;-68
2023/10/23 03:00:38;;;;;;;9.20;4.15;;;;;;;;;;5010480;28;20048;-68
2023/10/23 03:03:05;;;;;;;7.18;4.30;;;;;;;;;;5011674;28;20037;-68
2023/10/23 03:05:31;;;;;;;10.88;5.03;;;;;;;;;;5011429;28;20042;-67
2023/10/23 03:07:57;;;;;;;8.63;4.85;;;;;;;;;;5010673;28;20075;-68
2023/10/23 03:10:23;;;;;;;8.38;4.95;;;;;;;;;;5011081;28;20095;-68
2023/10/23 03:12:49;;;;;;;9.18;5.05;;;;;;;;;;5010724;28;20037;-67
2023/10/23 03:15:16;;;;;;;9.18;4.93;;;;;;;;;;5010925;28;20115;-68
2023/10/23 03:17:42;;;;;;;7.45;4.80;;;;;;;;;;5010968;28;20115;-67
2023/10/23 03:20:08;;;;;;;8.57;4.95;;;;;;;;;;5011288;28;20656;-68
2023/10/23 03:22:35;;;;;;;8.23;5.00;;;;;;;;;;5011241;28;21154;-68
2023/10/23 03:25:01;;;;;;;8.75;5.50;;;;;;;;;;5010876;28;20140;-68
2023/10/23 03:27:27;;;;;;;9.73;5.35;;;;;;;;;;5011682;28;20439;-68
2023/10/23 03:29:53;;;;;;;7.65;5.70;;;;;;;;;;5009663;28;20038;-68
2023/10/23 03:32:19;;;;;;;7.10;4.70;;;;;;;;;;5011219;28;20037;-67
2023/10/23 03:34:45;;;;;;;6.68;4.50;;;;;;;;;;5010563;28;20647;-68
2023/10/23 03:37:11;;;;;;;5.93;3.45;;;;;;;;;;5011135;28;20026;-68
2023/10/23 03:39:37;;;;;;;4.57;2.60;;;;;;;;;;5010513;28;20083;-68
2023/10/23 03:42:03;;;;;;;5.80;3.20;;;;;;;;;;5010639;28;20025;-69
2023/10/23 03:44:29;;;;;;;5.75;3.33;;;;;;;;;;5009157;28;20045;-68
2023/10/23 03:46:56;;;;;;;8.50;4.25;;;;;;;;;;5008469;28;20061;-68
2023/10/23 03:49:22;;;;;;;9.68;4.88;;;;;;;;;;5009860;28;20407;-67
2023/10/23 03:51:48;;;;;;;7.97;5.50;;;;;;;;;;5008847;28;20116;-67
2023/10/23 03:54:14;;;;;;;9.00;5.45;;;;;;;;;;5009910;28;20092;-68
2023/10/23 03:56:40;;;;;;;11.32;5.80;;;;;;;;;;5010814;28;20049;-68
2023/10/23 03:59:06;;;;;;;7.63;5.47;;;;;;;;;;5010576;28;20481;-68
2023/10/23 04:01:32;;;;;;;7.53;5.47;;;;;;;;;;5010458;28;20060;-68
2023/10/23 04:03:58;;;;;;;10.68;5.78;;;;;;;;;;5009126;28;20068;-67
2023/10/23 04:06:24;;;;;;;9.00;5.95;;;;;;;;;;5010346;28;20044;-67
2023/10/23 04:08:53;;;;;;;8.70;5.72;;;;;;;;;;5010548;28;20855;-68
2023/10/23 04:11:20;;;;;;;8.20;5.60;;;;;;;;;;5010231;28;20057;-68
2023/10/23 04:13:46;;;;;;;9.57;6.47;;;;;;;;;;5010701;28;20017;-68
2023/10/23 04:16:12;;;;;;;9.82;5.95;;;;;;;;;;5000670;28;20958;-68
2023/10/23 04:18:39;;;;;;;9.15;5.72;;;;;;;;;;5009934;28;20711;-68
2023/10/23 04:21:05;;;;;;;13.23;5.95;;;;;;;;;;5009149;28;20033;-68
2023/10/23 04:23:32;;;;;;;8.77;5.32;;;;;;;;;;5009568;28;20025;-68
2023/10/23 04:25:58;;;;;;;9.32;6.30;;;;;;;;;;5009316;28;20040;-68
2023/10/23 04:28:24;;;;;;;10.60;6.40;;;;;;;;;;5009764;28;20064;-68
2023/10/23 04:30:50;;;;;;;9.18;6.05;;;;;;;;;;5009100;28;20039;-68
2023/10/23 04:33:21;;;;;;;11.25;6.10;;;;;;;;;;5009131;28;20029;-68
2023/10/23 04:35:47;;;;;;;9.10;5.25;;;;;;;;;;5009103;28;20404;-68
2023/10/23 04:38:13;;;;;;;6.93;4.95;;;;;;;;;;5009672;28;20507;-68
2023/10/23 04:40:39;;;;;;;7.05;5.07;;;;;;;;;;5009261;28;21741;-68
2023/10/23 04:43:05;;;;;;;9.82;5.68;;;;;;;;;;5009260;28;20125;-67
2023/10/23 04:45:31;;;;;;;7.72;5.05;;;;;;;;;;5009774;28;20440;-67
2023/10/23 04:47:57;;;;;;;8.82;5.45;;;;;;;;;;5009427;28;20388;-68
2023/10/23 04:50:23;;;;;;;8.38;5.60;;;;;;;;;;5009867;28;20567;-67
2023/10/23 04:52:49;;;;;;;7.88;5.13;;;;;;;;;;5008684;28;20077;-68
2023/10/23 04:55:15;;;;;;;6.82;5.10;;;;;;;;;;5009058;28;20172;-68
2023/10/23 04:57:41;;;;;;;10.15;5.18;;;;;;;;;;5008996;28;20117;-68
2023/10/23 05:00:08;;;;;;;7.22;5.00;;;;;;;;;;5008465;28;20049;-67
2023/10/23 05:02:34;;;;;;;8.30;4.95;;;;;;;;;;5008945;28;20033;-68
2023/10/23 05:05:00;;;;;;;9.35;5.70;;;;;;;;;;5009102;28;20129;-68
2023/10/23 05:07:26;;;;;;;9.85;6.38;;;;;;;;;;5008717;28;20037;-67
2023/10/23 05:09:52;;;;;;;8.68;6.40;;;;;;;;;;5008361;28;20084;-68
2023/10/23 05:12:18;;;;;;;8.65;5.78;;;;;;;;;;5008213;28;20159;-67
2023/10/23 05:14:44;;;;;;;9.90;6.18;;;;;;;;;;5008730;28;20121;-67
2023/10/23 05:17:10;;;;;;;9.68;6.30;;;;;;;;;;5012462;28;20040;-68
2023/10/23 05:19:36;;;;;;;10.80;6.22;;;;;;;;;;5012581;28;20132;-68
2023/10/23 05:22:02;;;;;;;9.02;5.85;;;;;;;;;;5012618;28;20040;-67
2023/10/23 05:24:29;;;;;;;9.48;5.30;;;;;;;;;;5011176;28;20040;-68
2023/10/23 05:26:55;;;;;;;7.60;5.07;;;;;;;;;;5012360;28;20030;-68
2023/10/23 05:29:21;;;;;;;9.55;3.53;;;;;;;;;;5012327;28;20033;-68
2023/10/23 05:31:47;;;;;;;5.15;2.80;;;;;;;;;;5012180;28;20037;-67
2023/10/23 05:34:14;;;;;;;4.50;2.70;;;;;;;;;;5010988;28;20030;-68
2023/10/23 05:36:40;;;;;;;5.88;2.83;;;;;;;;;;5012230;28;20029;-68
2023/10/23 05:39:06;;;;;;;5.82;2.92;;;;;;;;;;5012336;28;21538;-68
2023/10/23 05:41:32;;;;;;;5.43;3.38;;;;;;;;;;5012192;28;20072;-67
2023/10/23 05:43:58;;;;;;;6.47;3.72;;;;;;;;;;5012002;28;20034;-68
2023/10/23 05:46:24;;;;;;;6.70;3.83;;;;;;;;;;5012067;28;20026;-67
2023/10/23 05:48:50;;;;;;;6.03;3.33;;;;;;;;;;5012043;28;20042;-68
2023/10/23 05:51:16;;;;;;;5.55;2.97;;;;;;;;;;5011848;28;20037;-67
2023/10/23 05:53:42;;;;;;;3.92;2.33;;;;;;;;;;5011831;28;20112;-68
2023/10/23 05:56:08;;;;;;;8.50;2.45;;;;;;;;;;5012258;28;20042;-68
2023/10/23 05:58:35;;;;;;;5.00;2.85;;;;;;;;;;5012024;28;20182;-67
2023/10/23 06:01:05;;;;;;;5.90;3.60;;;;;;;;;;5011655;28;20045;-68
2023/10/23 06:03:31;;;;;;;6.85;4.15;;;;;;;;;;5011912;28;20033;-68
2023/10/23 06:05:57;;;;;;;8.93;4.70;;;;;;;;;;5011952;28;20499;-68
2023/10/23 06:08:23;;;;;;;4.25;2.15;;;;;;;;;;5011539;28;20036;-68
2023/10/23 06:10:49;;;;;;;5.60;2.20;;;;;;;;;;5011558;28;20152;-67
2023/10/23 06:13:15;;;;;;;4.95;2.47;;;;;;;;;;5011778;28;20107;-67
2023/10/23 06:15:41;;;;;;;6.95;2.67;;;;;;;;;;5002845;28;20037;-68
2023/10/23 06:18:07;;;;;;;5.63;2.90;;;;;;;;;;5011379;28;20121;-68
2023/10/23 06:20:33;;;;;;;5.78;2.53;;;;;;;;;;5011897;28;20030;-67
2023/10/23 06:23:00;;;;;;;6.10;2.63;;;;;;;;;;5010655;28;20030;-68
2023/10/23 06:25:26;;;;;;;3.80;2.25;;;;;;;;;;5010534;28;20049;-68
2023/10/23 06:27:53;;;;;;;4.28;2.38;;;;;;;;;;5009496;28;20069;-68
2023/10/23 06:30:20;;;;;;;4.60;2.80;;;;;;;;;;5009640;28;20042;-68
2023/10/23 06:32:46;;;;;;;4.63;2.60;;;;;;;;;;5009654;28;20049;-68
2023/10/23 06:35:18;;;;;;;4.82;2.75;;;;;;;;;;5010287;28;20103;-68
2023/10/23 06:37:44;;;;;;;5.20;2.72;;;;;;;;;;5010441;28;20887;-68
2023/10/23 06:40:11;;;;;;;4.72;2.10;;;;;;;;;;5011315;28;20619;-68
2023/10/23 06:42:37;;;;;;;4.18;2.20;;;;;;;;;;5011475;28;20980;-68
2023/10/23 06:45:03;;;;;;;10.85;3.22;;;;;;;;;;5010781;28;20045;-68
2023/10/23 06:47:29;;;;;;;4.13;2.20;;;;;;;;;;5011575;28;20610;-68
2023/10/23 06:49:55;;;;;;;3.80;2.20;;;;;;;;;;5010478;28;20049;-68
2023/10/23 06:52:21;;;;;;;3.47;2.15;;;;;;;;;;5011114;28;21013;-68
2023/10/23 06:54:47;;;;;;;3.70;2.13;;;;;;;;;;5010753;28;20045;-68
2023/10/23 06:57:14;;;;;;;3.05;1.98;;;;;;;;;;5012219;28;20033;-68
2023/10/23 06:59:40;;;;;;;21.90;2.80;;;;;;;;;;5011138;28;20061;-67
2023/10/23 07:02:06;;;;;;;3.63;1.95;;;;;;;;;;5011216;28;20098;-68
2023/10/23 07:04:32;;;;;;;3.92;2.30;;;;;;;;;;5010668;28;20041;-69
2023/10/23 07:06:58;;;;;;;4.40;2.45;;;;;;;;;;5009481;28;20038;-68
2023/10/23 07:09:24;;;;;;;5.40;3.38;;;;;;;;;;5009829;28;20037;-68
2023/10/23 07:11:50;;;;;;;6.75;3.92;;;;;;;;;;5010181;28;20040;-68
2023/10/23 07:14:16;;;;;;;5.65;3.15;;;;;;;;;;5010082;28;20342;-68
2023/10/23 07:16:42;;;;;;;8.30;3.33;;;;;;;;;;5008834;28;20152;-68
2023/10/23 07:19:11;;;;;;;6.82;3.47;;;;;;;;;;5008226;28;21110;-68
2023/10/23 07:21:37;;;;;;;6.32;3.38;;;;;;;;;;5008474;28;20061;-68
2023/10/23 07:24:03;;;;;;;7.65;3.70;;;;;;;;;;5010213;28;20519;-68
2023/10/23 07:26:29;;;;;;;5.20;3.50;;;;;;;;;;5009365;28;20750;-68
2023/10/23 07:28:55;;;;;;;5.45;3.33;;;;;;;;;;5009437;28;20055;-68
2023/10/23 07:31:21;;;;;;;5.47;2.92;;;;;;;;;;5010348;28;20065;-68
2023/10/23 07:33:50;;;;;;;6.50;3.50;;;;;;;;;;5009418;28;20037;-68
2023/10/23 07:36:16;;;;;;;6.40;2.90;;;;;;;;;;5009798;28;20022;-69
2023/10/23 07:38:43;;;;;;;5.50;3.67;;;;;;;;;;5009709;28;20025;-68
2023/10/23 07:41:12;;;;;;;6.50;4.03;;;;;;;;;;5010421;28;20037;-68
2023/10/23 07:43:38;;;;;;;7.20;4.60;;;;;;;;;;5009897;28;20045;-68
2023/10/23 07:46:08;;;;;;;7.72;4.00;;;;;;;;;;5010478;28;20484;-68
2023/10/23 07:48:35;;;;;;;5.95;4.10;;;;;;;;;;5010242;28;21870;-68
2023/10/23 07:51:04;;;;;;;5.90;3.92;;;;;;;;;;5010648;28;20033;-68
2023/10/23 07:53:32;;;;;;;6.28;4.15;;;;;;;;;;5009333;28;20033;-68
2023/10/23 07:55:58;;;;;;;5.95;3.88;;;;;;;;;;5010194;28;20060;-67
2023/10/23 07:58:24;;;;;;;8.25;4.53;;;;;;;;;;5008603;28;20045;-68
2023/10/23 08:00:54;;;;;;;8.50;5.63;;;;;;;;;;5007363;28;20025;-68
2023/10/23 08:03:20;;;;;;;7.55;4.38;;;;;;;;;;5010201;28;20037;-68
2023/10/23 08:05:46;;;;;;;8.93;5.90;;;;;;;;;;5010600;28;20435;-68
2023/10/23 08:08:12;;;;;;;10.15;5.75;;;;;;;;;;5009668;28;20039;-68
2023/10/23 08:10:38;;;;;;;9.40;5.82;;;;;;;;;;5009489;28;20029;-68
2023/10/23 08:13:05;;;;;;;9.93;5.88;;;;;;;;;;5010162;28;20034;-67
2023/10/23 08:15:31;;;;;;;8.45;5.60;;;;;;;;;;5009541;28;20858;-67
2023/10/23 08:17:57;;;;;;;10.43;7.00;;;;;;;;;;5009432;28;20037;-67
2023/10/23 08:20:23;;;;;;;8.82;6.15;;;;;;;;;;5009622;28;20684;-67
2023/10/23 08:22:50;;;;;;;9.00;5.45;;;;;;;;;;5001681;28;20025;-67
2023/10/23 08:25:16;;;;;;;9.30;5.65;;;;;;;;;;4996652;28;20909;-68
2023/10/23 08:27:42;;;;;;;10.05;5.80;;;;;;;;;;4998769;28;20039;-67
2023/10/23 08:30:08;;;;;;;8.48;5.45;;;;;;;;;;4997943;28;20037;-67
2023/10/23 08:32:35;;;;;;;8.73;5.93;;;;;;;;;;4998544;28;20041;-67
2023/10/23 08:35:02;;;;;;;8.68;6.10;;;;;;;;;;4998468;28;20562;-67
2023/10/23 08:37:29;;;;;;;8.27;5.85;;;;;;;;;;4999034;28;21006;-68
2023/10/23 08:39:55;;;;;;;11.02;6.60;;;;;;;;;;4998370;28;20037;-67
2023/10/23 08:42:21;;;;;;;8.93;6.25;;;;;;;;;;4997997;28;20116;-67
2023/10/23 08:44:48;;;;;;;7.20;5.40;;;;;;;;;;4998370;28;20029;-68
2023/10/23 08:47:14;;;;;;;9.18;6.05;;;;;;;;;;4998848;28;20450;-67
2023/10/23 08:49:40;;;;;;;7.50;5.82;;;;;;;;;;4996626;28;20041;-68
2023/10/23 08:52:10;;;;;;;8.35;5.85;;;;;;;;;;4994331;28;20037;-67
2023/10/23 08:54:36;;;;;;;9.48;5.93;;;;;;;;;;4998741;28;20045;-68
2023/10/23 08:57:03;;;;;;;10.88;6.10;;;;;;;;;;4997869;28;20025;-68
2023/10/23 08:59:29;;;;;;;10.40;6.22;;;;;;;;;;4998527;28;20190;-67
2023/10/23 09:01:56;;;;;;;8.85;5.90;;;;;;;;;;4998221;28;20042;-67
2023/10/23 09:04:22;;;;;;;8.02;5.90;;;;;;;;;;4997618;28;20030;-67
2023/10/23 09:06:52;;;;;;;8.98;6.05;;;;;;;;;;4998158;28;20624;-68
2023/10/23 09:09:20;;;;;;;9.82;5.95;;;;;;;;;;4998972;28;20033;-68
2023/10/23 09:11:48;;;;;;;8.63;6.22;;;;;;;;;;4997835;28;20087;-68
2023/10/23 09:14:28;;;;;;;15.07;7.05;;;;;;;;;;4997937;28;20196;-67
2023/10/23 09:16:55;;;;;;;7.97;5.97;;;;;;;;;;4998456;28;20021;-68
2023/10/23 09:19:29;;;;;;;8.43;6.03;;;;;;;;;;4997993;28;20137;-68
2023/10/23 09:21:56;;;;;;;8.00;5.93;;;;;;;;;;4998428;28;20033;-68
2023/10/23 09:24:23;;;;;;;7.97;5.90;;;;;;;;;;4998001;28;20044;-67
2023/10/23 09:26:52;;;;;;;9.10;6.18;;;;;;;;;;4998771;28;20685;-68
2023/10/23 09:29:22;;;;;;;7.80;5.75;;;;;;;;;;4998471;28;20030;-68
2023/10/23 09:31:48;;;;;;;8.52;5.95;;;;;;;;;;4998770;28;20033;-68
2023/10/23 09:34:14;;;;;;;8.30;5.90;;;;;;;;;;4998510;28;20380;-67
2023/10/23 09:36:41;;;;;;;7.43;5.60;;;;;;;;;;4997348;28;20556;-67
2023/10/23 09:39:07;;;;;;;8.00;5.82;;;;;;;;;;4999062;28;20030;-68
2023/10/23 09:41:34;;;;;;;7.40;5.13;;;;;;;;;;4998191;28;20057;-68
2023/10/23 09:44:03;;;;;;;8.15;5.20;;;;;;;;;;4996601;28;20111;-68
2023/10/23 09:46:29;;;;;;;8.80;5.63;;;;;;;;;;4996596;28;20033;-68
2023/10/23 09:49:03;;;;;;;11.07;4.70;;;;;;;;;;4998067;28;20026;-68
2023/10/23 09:51:29;;;;;;;;;;;;;;;;;;4998740;28;20073;-68
2023/10/23 09:54:03;;;;;;;7.90;4.32;;;;;;;;;;4998201;28;19917;-68
2023/10/23 09:56:32;;;;;;;8.45;4.93;;;;;;;;;;4997834;28;20077;-68
2023/10/23 09:59:04;;;;;;;8.27;4.97;;;;;;;;;;4998349;28;20029;-68
2023/10/23 10:01:39;;;;;;;8.30;4.88;;;;;;;;;;4997762;28;20419;-68
2023/10/23 10:04:25;;;;;;;6.75;4.75;;;;;;;;;;5002098;28;20026;-68
2023/10/23 10:06:53;;;;;;;8.73;4.32;;;;;;;;;;4998741;28;20029;-68
2023/10/23 10:09:21;;;;;;;7.45;4.50;;;;;;;;;;5001171;28;20129;-67
2023/10/23 10:11:48;;;;;;;7.28;4.13;;;;;;;;;;5000888;28;20167;-67
2023/10/23 10:14:15;;;;;;;6.00;3.60;;;;;;;;;;5000217;28;20480;-68
2023/10/23 10:16:42;;;;;;;6.47;3.50;;;;;;;;;;5001260;28;20240;-68
2023/10/23 10:19:08;;;;;;;5.57;2.95;;;;;;;;;;5001466;28;20031;-68
2023/10/23 10:21:53;;;;;;;6.43;3.28;;;;;;;;;;5003403;28;20032;-67
2023/10/23 10:24:20;;;;;;;5.90;3.00;;;;;;;;;;5001280;28;20469;-68
2023/10/23 10:26:47;;;;;;;5.80;3.80;;;;;;;;;;5001418;28;20218;-68
2023/10/23 10:29:13;;;;;;;6.65;3.47;;;;;;;;;;5000137;28;20048;-68
2023/10/23 10:32:15;;;;;;;5.25;2.47;;;;;;;;;;5001205;28;20029;-68
2023/10/23 10:34:46;;;;;;;6.53;2.30;;;;;;;;;;5018642;28;20045;-68
2023/10/23 10:37:13;;;;;;;5.50;3.03;;;;;;;;;;5003893;28;20038;-67
2023/10/23 10:39:52;;;;;;;5.10;1.80;;;;;;;;;;4997692;28;20042;-68
2023/10/23 10:42:22;;;;;;;6.47;1.95;;;;;;;;;;5001376;28;20022;-68
2023/10/23 10:44:52;;;;;;;6.10;2.40;;;;;;;;;;5000056;28;20060;-68
2023/10/23 10:47:19;;;;;;;5.60;2.42;;;;;;;;;;5001018;28;20037;-68
2023/10/23 10:49:48;;;;;;;6.97;2.42;;;;;;;;;;5000402;28;20399;-67
2023/10/23 10:52:27;;;;;;;5.65;2.58;;;;;;;;;;4998298;28;20240;-68
2023/10/23 10:54:57;;;;;;;4.43;1.92;;;;;;;;;;4997472;28;20068;-67
2023/10/23 10:57:23;;;;;;;6.97;1.90;;;;;;;;;;4992488;28;20032;-67
2023/10/23 10:59:57;;;;;;;6.75;2.53;;;;;;;;;;4988793;28;20115;-68
2023/10/23 11:02:23;;;;;;;4.18;2.00;;;;;;;;;;4989224;28;20030;-68
2023/10/23 11:04:49;;;;;;;7.10;2.40;;;;;;;;;;4993274;28;20067;-68
2023/10/23 11:07:22;;;;;;;6.43;1.67;;;;;;;;;;4990786;28;21005;-67
2023/10/23 11:09:49;;;;;;;2.28;1.35;;;;;;;;;;4992166;28;20445;-68
2023/10/23 11:12:17;;;;;;;3.08;1.50;;;;;;;;;;4993044;28;20044;-68
2023/10/23 11:14:43;;;;;;;4.22;1.40;;;;;;;;;;4993070;28;20041;-68
2023/10/23 11:17:09;;;;;;;2.80;1.15;;;;;;;;;;4992760;28;20036;-67
2023/10/23 11:19:35;;;;;;;5.80;1.70;;;;;;;;;;4993162;28;21046;-68
2023/10/23 11:22:08;;;;;;;4.65;1.25;;;;;;;;;;4991224;28;20107;-68
2023/10/23 11:24:34;;;;;;;3.25;1.38;;;;;;;;;;4993269;28;20112;-67
2023/10/23 11:27:00;;;;;;;4.10;1.33;;;;;;;;;;4992392;28;20049;-67
2023/10/23 11:29:26;;;;;;;3.60;1.00;;;;;;;;;;4993244;28;20048;-68
2023/10/23 11:31:52;;;;;;;4.80;1.20;;;;;;;;;;4992623;28;20034;-67
2023/10/23 11:34:18;;;;;;;2.63;1.08;;;;;;;;;;4991279;28;20053;-68
2023/10/23 11:36:49;;;;;;;3.75;1.00;;;;;;;;;;4992718;28;20037;-68
2023/10/23 11:39:18;;;;;;;2.20;0.85;;;;;;;;;;4992737;28;20452;-68
2023/10/23 11:41:54;;;;;;;2.22;0.77;;;;;;;;;;4991717;28;20025;-68
2023/10/23 11:44:20;;;;;;;2.90;0.95;;;;;;;;;;4992280;28;20025;-67
2023/10/23 11:46:47;;;;;;;3.10;1.00;;;;;;;;;;4992318;28;21648;-68
2023/10/23 11:49:14;;;;;;;2.78;0.88;;;;;;;;;;4991392;28;20037;-68
2023/10/23 11:51:40;;;;;;;3.83;1.13;;;;;;;;;;4991948;28;20368;-68
2023/10/23 11:54:06;;;;;;;3.42;1.42;;;;;;;;;;4992633;28;20038;-68
2023/10/23 11:56:32;;;;;;;4.82;1.00;;;;;;;;;;4992265;28;20049;-67
2023/10/23 11:59:00;;;;;;;2.85;1.20;;;;;;;;;;4993458;28;20029;-67
2023/10/23 12:01:26;;;;;;;4.88;1.17;;;;;;;;;;4992747;28;20040;-68
2023/10/23 12:03:52;;;;;;;5.88;2.03;;;;;;;;;;4992706;28;20037;-67
2023/10/23 12:06:18;;;;;;;2.85;1.20;;;;;;;;;;4992131;28;20492;-67
2023/10/23 12:08:44;;;;;;;5.10;2.10;;;;;;;;;;4992418;28;20230;-67
2023/10/23 12:11:10;;;;;;;6.50;2.15;;;;;;;;;;4990255;28;20048;-68
2023/10/23 12:13:36;;;;;;;3.95;1.73;;;;;;;;;;4991023;28;20033;-67
2023/10/23 12:16:04;;;;;;;3.83;1.70;;;;;;;;;;4990845;28;20440;-67
2023/10/23 12:18:30;;;;;;;4.20;1.88;;;;;;;;;;4992542;28;20124;-67
2023/10/23 12:20:56;;;;;;;6.35;1.92;;;;;;;;;;4991803;28;20059;-67
2023/10/23 12:23:22;;;;;;;5.30;1.80;;;;;;;;;;4991717;28;20041;-67
2023/10/23 12:25:48;;;;;;;4.22;2.00;;;;;;;;;;4991613;28;20579;-67
2023/10/23 12:28:14;;;;;;;6.40;2.17;;;;;;;;;;4992651;28;20803;-67
2023/10/23 12:30:40;;;;;;;3.95;2.03;;;;;;;;;;4992422;28;20030;-67
2023/10/23 12:33:06;;;;;;;5.03;1.58;;;;;;;;;;4992019;28;20037;-67
2023/10/23 12:35:32;;;;;;;5.25;2.17;;;;;;;;;;4992578;28;20033;-67
2023/10/23 12:37:58;;;;;;;3.35;1.70;;;;;;;;;;4992058;28;20021;-67
2023/10/23 12:40:24;;;;;;;5.70;1.80;;;;;;;;;;5007564;28;20065;-67
2023/10/23 12:42:51;;;;;;;4.55;1.92;;;;;;;;;;4990635;28;20022;-67
2023/10/23 12:45:17;;;;;;;5.82;1.95;;;;;;;;;;4991247;28;20086;-67
2023/10/23 12:47:45;;;;;;;7.20;2.80;;;;;;;;;;4991824;28;20147;-67
2023/10/23 12:50:11;;;;;;;6.95;2.53;;;;;;;;;;4990428;28;20099;-67
2023/10/23 12:52:38;;;;;;;5.63;2.95;;;;;;;;;;4991283;28;20450;-67
2023/10/23 12:55:04;;;;;;;5.68;3.17;;;;;;;;;;4991791;28;20164;-67
2023/10/23 12:57:31;;;;;;;7.78;3.40;;;;;;;;;;4991835;28;20044;-67
2023/10/23 12:59:57;;;;;;;9.13;3.83;;;;;;;;;;4991717;28;20746;-67
2023/10/23 13:02:23;;;;;;;8.98;4.15;;;;;;;;;;4989261;28;20037;-67
2023/10/23 13:04:49;;;;;;;6.15;4.18;;;;;;;;;;4991132;28;20554;-68
2023/10/23 13:07:16;;;;;;;6.32;2.47;;;;;;;;;;5005541;28;20034;-68
2023/10/23 13:09:42;;;;;;;5.57;2.83;;;;;;;;;;4986976;28;20041;-68
2023/10/23 13:12:08;;;;;;;5.57;2.90;;;;;;;;;;4990461;28;20033;-67
2023/10/23 13:14:34;;;;;;;8.23;2.65;;;;;;;;;;4986803;28;20046;-67
2023/10/23 13:17:00;;;;;;;10.07;3.38;;;;;;;;;;4989925;28;20581;-67
2023/10/23 13:19:26;;;;;;;9.32;3.70;;;;;;;;;;4997201;28;20036;-67
2023/10/23 13:21:52;;;;;;;6.05;3.83;;;;;;;;;;4996925;28;20029;-67
2023/10/23 13:24:18;;;;;;;6.40;3.90;;;;;;;;;;4996121;28;20041;-67
2023/10/23 13:26:44;;;;;;;9.90;3.60;;;;;;;;;;4997334;28;20038;-67
2023/10/23 13:29:10;;;;;;;8.30;3.25;;;;;;;;;;4999690;28;20531;-67
2023/10/23 13:31:36;;;;;;;7.38;3.83;;;;;;;;;;4997702;28;20040;-67
2023/10/23 13:34:02;;;;;;;6.00;4.05;;;;;;;;;;4997770;28;20466;-67
2023/10/23 13:36:29;;;;;;;6.45;4.05;;;;;;;;;;4997226;28;20951;-67
2023/10/23 13:38:55;;;;;;;8.95;4.10;;;;;;;;;;5001348;28;21002;-67
2023/10/23 13:41:21;;;;;;;7.60;4.70;;;;;;;;;;5001193;28;20122;-67
2023/10/23 13:43:47;;;;;;;8.48;4.78;;;;;;;;;;5000416;28;20056;-67
2023/10/23 13:46:15;;;;;;;8.27;4.80;;;;;;;;;;5000504;28;20621;-67
2023/10/23 13:48:41;;;;;;;7.68;4.00;;;;;;;;;;5001168;28;20029;-67
2023/10/23 13:51:09;;;;;;;7.60;5.00;;;;;;;;;;5001381;28;20033;-67
2023/10/23 13:53:35;;;;;;;11.77;5.65;;;;;;;;;;5000678;28;20033;-67
2023/10/23 13:56:01;;;;;;;8.48;5.28;;;;;;;;;;4999579;28;20084;-67
2023/10/23 13:58:27;;;;;;;7.22;4.78;;;;;;;;;;5000992;28;20033;-67
2023/10/23 14:00:53;;;;;;;7.60;4.40;;;;;;;;;;5001050;28;20487;-67
2023/10/23 14:03:19;;;;;;;7.85;4.35;;;;;;;;;;5000465;28;20864;-67
2023/10/23 14:05:46;;;;;;;9.05;4.57;;;;;;;;;;5001067;28;20084;-67
2023/10/23 14:08:12;;;;;;;8.82;4.45;;;;;;;;;;5000846;28;20037;-67
2023/10/23 14:10:39;;;;;;;7.15;4.45;;;;;;;;;;5001058;28;20038;-67
2023/10/23 14:13:05;;;;;;;7.65;4.30;;;;;;;;;;4999633;28;20108;-67
2023/10/23 14:15:31;;;;;;;6.90;4.57;;;;;;;;;;4999393;28;20044;-67
2023/10/23 14:17:57;;;;;;;7.40;3.60;;;;;;;;;;5000920;28;20038;-67
2023/10/23 14:20:23;;;;;;;7.25;4.22;;;;;;;;;;5000477;28;20175;-67
2023/10/23 14:22:49;;;;;;;8.10;4.75;;;;;;;;;;4999840;28;20685;-67
2023/10/23 14:25:15;;;;;;;8.75;4.28;;;;;;;;;;5000495;28;21006;-67
2023/10/23 14:27:42;;;;;;;7.40;3.88;;;;;;;;;;5000717;28;20041;-67
2023/10/23 14:30:08;;;;;;;6.88;3.00;;;;;;;;;;4999664;28;20506;-67
2023/10/23 14:32:38;;;;;;;5.65;3.22;;;;;;;;;;5000513;28;20037;-67
2023/10/23 14:35:05;;;;;;;8.07;3.42;;;;;;;;;;5000500;28;20061;-67
2023/10/23 14:37:31;;;;;;;7.00;3.33;;;;;;;;;;4999314;28;20459;-67
2023/10/23 14:39:57;;;;;;;6.15;3.63;;;;;;;;;;5000173;28;20087;-67
2023/10/23 14:42:23;;;;;;;8.68;4.30;;;;;;;;;;4999085;28;20065;-67